الصفحة الرئيسية
METAR-TAF:

METAR-TAF

مطار :

روسيان ميسجن, ألاسكا, الولايات المتحدة

دائرة عرض: 61-46-30N, خط طول: 161-19-10W, ارتفاع: 16 متر

مراقبة الطقس الحالي

تاريخ ووقت الإصدار 1ساعة و 1 دقيقة قبل الساعة 01:56UTC
ريح 5 عقدة من الجنوب
درجة الحرارة 14°درجة مئوية
الرطوبة 67%
ضغط 1012 hPa
الرؤية: 16.1 كم
غيوم متفرقة على ارتفاع 3300 قدم
غيوم مفككة على ارتفاع 4100 قدم
ملبد بالغيوم على ارتفاع 6000 قدم

METAR: PARS 180156Z AUTO 17005KT 10SM SCT033 BKN041 OVC060 14/08 A2989 RMK AO2 SLP126 T01390078 $

زمن: 18:57 (02:57 UTC)


TAF: مفقودة

أرصاد الطقس والتوقعات من أكثر من 4000 مطار (تقارير الطقس للمطار METAR والتنبؤ بالطقس بالمطارTAF).

المحطات المتاحة هي النقط الصفراء والحمراء على الخريطة.

حرك المؤشر فوق النقطة لمعرفة اسم المحطة.

ثم انقر لمعرفة أرصاد وتوقعات الطقس.

لتغيير الخارطة: اضغط على الأزرار الخضراء مع رمز الصليب الأسود للتكبير. على الزر الأخضر مع شرطة للتصغير، أو على الأسهم الخضراء للخرائط المجاورة.


METAR-TAF: